Time;durP1;ratioP1;P1;durP2;ratioP2;P2;SDS_P1;SDS_P2;PMS_P1;PMS_P2;Temp;Humidity;BMP_temperature;BMP_pressure;BME280_temperature;BME280_humidity;BME280_pressure;Samples;Min_cycle;Max_cycle;Signal;HPM_P1;HPM_P2
2022/06/03 00:02:51;;;;;;;6.45;3.67;;;;;;;13.50;62.29;100265.22;5066603;28;20040;-85
2022/06/03 00:05:53;;;;;;;9.07;4.03;;;;;;;13.35;62.87;100263.25;5028540;28;20305;-86
2022/06/03 00:08:36;;;;;;;6.88;3.40;;;;;;;13.07;63.86;100266.22;5028068;28;20045;-85
2022/06/03 00:11:14;;;;;;;7.68;3.08;;;;;;;13.03;64.33;100270.59;5026342;28;20072;-86
2022/06/03 00:14:24;;;;;;;6.13;3.40;;;;;;;12.97;64.33;100261.53;5038066;28;20102;-86
2022/06/03 00:17:27;;;;;;;8.07;3.70;;;;;;;12.98;64.47;100270.59;5045714;28;20037;-86
2022/06/03 00:20:22;;;;;;;7.57;5.05;;;;;;;12.86;65.13;100271.63;5045888;28;20036;-86
2022/06/03 00:23:10;;;;;;;7.32;3.17;;;;;;;12.69;65.28;100260.91;5046504;28;20025;-85
2022/06/03 00:25:45;;;;;;;8.70;4.47;;;;;;;12.75;65.41;100262.56;5045735;28;20124;-86
2022/06/03 00:28:43;;;;;;;5.32;3.13;;;;;;;12.52;65.61;100266.53;5045784;28;20635;-85
2022/06/03 00:31:40;;;;;;;7.75;4.30;;;;;;;12.47;66.03;100262.69;5045903;28;20029;-87
2022/06/03 00:34:38;;;;;;;9.75;4.05;;;;;;;12.42;66.56;100259.13;5045735;28;20040;-86
2022/06/03 00:37:20;;;;;;;7.38;4.25;;;;;;;12.41;66.79;100258.28;5045357;28;20031;-86
2022/06/03 00:40:07;;;;;;;7.28;4.47;;;;;;;12.28;68.15;100264.22;5046654;28;20411;-86
2022/06/03 00:42:57;;;;;;;10.00;4.32;;;;;;;12.19;67.98;100253.78;5046600;28;20870;-86
2022/06/03 00:45:38;;;;;;;8.38;4.28;;;;;;;12.14;68.05;100245.56;5046043;28;20710;-86
2022/06/03 00:48:42;;;;;;;8.82;4.88;;;;;;;12.04;68.47;100243.53;5046714;28;20052;-85
2022/06/03 00:51:19;;;;;;;10.73;4.53;;;;;;;11.94;68.92;100246.22;5046666;28;20029;-84
2022/06/03 00:54:03;;;;;;;8.65;4.50;;;;;;;12.05;68.89;100241.63;5044610;28;20462;-85
2022/06/03 00:56:44;;;;;;;6.93;3.97;;;;;;;12.06;68.80;100240.56;5045818;28;20033;-85
2022/06/03 00:59:18;;;;;;;9.68;4.28;;;;;;;12.03;69.11;100237.28;5041857;28;20119;-86
2022/06/03 01:01:59;;;;;;;8.90;5.03;;;;;;;11.87;69.39;100240.97;5041980;28;20090;-86
2022/06/03 01:05:20;;;;;;;11.55;5.43;;;;;;;11.92;69.12;100232.81;5046339;28;20120;-85
2022/06/03 01:08:13;;;;;;;9.30;4.95;;;;;;;11.97;69.53;100235.59;5043259;28;20492;-86
2022/06/03 01:11:10;;;;;;;15.98;5.65;;;;;;;11.96;69.45;100231.19;5045411;28;20035;-87
2022/06/03 01:14:03;;;;;;;9.55;5.15;;;;;;;11.82;69.90;100230.81;5045885;28;20449;-86
2022/06/03 01:16:58;;;;;;;11.57;6.25;;;;;;;11.71;70.25;100237.31;5044723;28;20472;-86
2022/06/03 01:20:13;;;;;;;12.60;5.25;;;;;;;11.69;70.67;100232.09;5045319;28;20029;-86
2022/06/03 01:22:47;;;;;;;7.83;4.77;;;;;;;11.82;70.40;100235.47;5036473;28;20047;-86
2022/06/03 01:25:43;;;;;;;8.00;4.82;;;;;;;11.89;70.14;100236.91;5044771;28;20274;-85
2022/06/03 01:28:14;;;;;;;8.27;4.70;;;;;;;11.89;69.77;100241.53;5044669;28;20135;-87
2022/06/03 01:30:57;;;;;;;7.03;4.38;;;;;;;11.71;70.22;100232.66;5046189;28;20042;-85
2022/06/03 01:33:42;;;;;;;9.48;5.28;;;;;;;11.71;70.24;100242.75;5045078;28;20451;-85
2022/06/03 01:36:33;;;;;;;9.38;5.03;;;;;;;11.78;70.01;100230.53;5046201;28;20025;-85
2022/06/03 01:39:23;;;;;;;9.18;5.78;;;;;;;11.58;71.18;100241.28;5045597;28;20055;-86
2022/06/03 01:42:14;;;;;;;12.80;6.57;;;;;;;11.73;70.89;100226.94;5045775;28;20493;-86
2022/06/03 01:45:19;;;;;;;9.90;5.43;;;;;;;11.55;70.95;100224.31;5046168;28;20043;-86
2022/06/03 01:48:02;;;;;;;9.25;5.78;;;;;;;11.60;71.23;100230.91;5046069;28;20031;-86
2022/06/03 01:50:42;;;;;;;12.40;5.90;;;;;;;11.53;71.62;100228.41;5045327;28;20052;-86
2022/06/03 01:53:50;;;;;;;10.77;5.43;;;;;;;11.53;71.72;100229.22;5046320;28;20029;-86
2022/06/03 01:56:21;;;;;;;10.13;5.70;;;;;;;11.50;71.63;100224.28;5052860;28;20051;-85
2022/06/03 01:59:11;;;;;;;10.35;5.60;;;;;;;11.61;71.41;100224.38;5063934;28;20032;-85
2022/06/03 02:01:45;;;;;;;10.48;6.20;;;;;;;11.53;71.15;100226.50;5065938;28;20439;-85
2022/06/03 02:04:25;;;;;;;14.50;6.97;;;;;;;11.49;71.77;100228.09;5049882;28;20555;-85
2022/06/03 02:07:12;;;;;;;9.75;5.88;;;;;;;11.38;72.29;100218.19;5045173;28;20029;-86
2022/06/03 02:10:00;;;;;;;10.75;5.90;;;;;;;11.40;72.03;100216.84;5046480;28;20148;-87
2022/06/03 02:12:34;;;;;;;10.77;6.18;;;;;;;11.20;72.24;100214.75;5044752;28;20420;-86
2022/06/03 02:15:25;;;;;;;12.45;6.63;;;;;;;11.24;72.38;100221.34;5045857;28;20045;-87
2022/06/03 02:18:07;;;;;;;10.70;6.05;;;;;;;11.41;72.39;100220.41;5045974;28;20033;-86
2022/06/03 02:21:10;;;;;;;10.02;6.30;;;;;;;11.48;71.42;100210.06;5044442;28;20039;-86
2022/06/03 02:24:10;;;;;;;10.38;5.50;;;;;;;11.40;71.98;100207.81;5045709;28;20044;-85
2022/06/03 02:26:48;;;;;;;11.02;5.75;;;;;;;11.42;71.90;100209.22;5046276;28;20025;-85
2022/06/03 02:32:31;;;;;;;10.45;5.45;;;;;;;11.14;72.34;100199.41;5045163;28;20047;-85
2022/06/03 02:35:10;;;;;;;11.95;6.32;;;;;;;11.05;73.24;100197.13;5025540;28;20041;-85
2022/06/03 02:37:54;;;;;;;15.52;7.90;;;;;;;11.01;73.38;100196.00;5024953;28;20119;-85
2022/06/03 02:40:45;;;;;;;9.48;6.45;;;;;;;11.09;73.34;100203.72;5025495;28;20033;-86
2022/06/03 02:43:22;;;;;;;11.68;6.50;;;;;;;11.04;73.47;100200.97;5036056;28;20159;-86
2022/06/03 02:46:14;;;;;;;11.38;6.88;;;;;;;10.95;73.36;100202.47;5047130;28;20097;-86
2022/06/03 02:49:02;;;;;;;9.90;5.90;;;;;;;10.92;73.71;100192.09;5012974;28;20072;-86
2022/06/03 02:51:50;;;;;;;12.85;6.47;;;;;;;10.81;74.05;100186.53;5028055;28;20667;-86
2022/06/03 02:54:40;;;;;;;11.73;7.30;;;;;;;10.81;73.73;100180.25;5043175;28;20104;-85
2022/06/03 02:57:31;;;;;;;18.83;8.20;;;;;;;10.68;74.29;100186.94;5063111;28;20075;-83
2022/06/03 03:00:10;;;;;;;13.13;6.88;;;;;;;10.78;73.84;100192.47;5067883;28;20040;-86
2022/06/03 03:02:55;;;;;;;10.77;6.68;;;;;;;10.80;74.08;100190.31;5065294;28;20029;-84
2022/06/03 03:05:41;;;;;;;11.13;5.72;;;;;;;10.81;73.60;100197.44;5044051;28;20039;-86
2022/06/03 03:08:15;;;;;;;14.65;7.32;;;;;;;10.83;73.63;100189.81;5043297;28;20024;-86
2022/06/03 03:11:05;;;;;;;12.98;8.15;;;;;;;10.64;74.27;100180.34;5049196;28;20052;-86
2022/06/03 03:14:13;;;;;;;12.45;7.03;;;;;;;10.59;74.59;100171.03;5047948;28;20057;-86
2022/06/03 03:17:29;;;;;;;14.77;7.80;;;;;;;10.60;74.69;100175.38;5046925;28;20055;-86
2022/06/03 03:20:21;;;;;;;12.93;5.85;;;;;;;10.48;74.88;100180.09;5048034;28;20075;-86
2022/06/03 03:23:11;;;;;;;12.00;7.38;;;;;;;10.47;75.34;100186.66;5048521;28;20032;-86
2022/06/03 03:25:56;;;;;;;10.32;6.78;;;;;;;10.50;75.00;100186.16;5046977;28;20479;-85
2022/06/03 03:28:32;;;;;;;11.98;6.63;;;;;;;10.49;75.13;100179.06;5047588;28;20522;-85
2022/06/03 03:31:19;;;;;;;12.43;6.30;;;;;;;10.71;74.55;100167.31;5047170;28;20049;-85
2022/06/03 03:34:01;;;;;;;13.57;7.85;;;;;;;10.70;74.39;100171.94;5045837;28;20037;-85
2022/06/03 03:36:59;;;;;;;16.13;6.85;;;;;;;10.70;74.00;100176.59;5047302;28;20040;-86
2022/06/03 03:39:33;;;;;;;10.45;6.78;;;;;;;10.65;74.27;100176.50;5043026;28;20090;-86
2022/06/03 03:42:36;;;;;;;11.63;6.28;;;;;;;10.72;74.19;100171.69;5044132;28;20555;-86
2022/06/03 03:45:32;;;;;;;10.18;6.25;;;;;;;10.56;74.92;100168.78;5047939;28;20045;-86
2022/06/03 03:48:52;;;;;;;19.45;9.40;;;;;;;10.47;75.08;100171.13;5047587;28;20045;-85
2022/06/03 03:51:42;;;;;;;12.23;7.00;;;;;;;10.60;74.97;100180.84;5002638;28;20032;-86
2022/06/03 03:54:19;;;;;;;15.07;6.60;;;;;;;10.67;74.55;100171.63;4985530;28;20115;-85
2022/06/03 03:57:16;;;;;;;10.75;6.20;;;;;;;10.73;74.35;100173.34;5042193;28;20048;-86
2022/06/03 04:00:07;;;;;;;9.43;5.85;;;;;;;10.59;74.82;100173.75;5047095;28;20032;-86
2022/06/03 04:03:02;;;;;;;8.90;5.82;;;;;;;10.68;75.15;100174.09;5065222;28;20032;-85
2022/06/03 04:05:59;;;;;;;10.30;6.53;;;;;;;10.84;73.85;100180.53;5048316;28;20029;-86
2022/06/03 04:08:47;;;;;;;9.93;6.05;;;;;;;10.90;74.37;100178.69;5047040;28;20044;-85
2022/06/03 04:11:36;;;;;;;12.27;6.75;;;;;;;10.98;74.36;100180.16;5048139;28;20029;-85
2022/06/03 04:14:25;;;;;;;13.20;6.35;;;;;;;10.79;74.83;100177.78;5046229;28;20048;-85
2022/06/03 04:17:05;;;;;;;12.30;7.63;;;;;;;10.93;74.72;100175.47;5046166;28;20041;-86
2022/06/03 04:20:17;;;;;;;13.05;7.00;;;;;;;10.85;75.12;100173.19;5047482;28;20036;-86
2022/06/03 04:22:48;;;;;;;12.70;6.10;;;;;;;10.70;75.59;100168.41;5050733;28;20024;-84
2022/06/03 04:26:09;;;;;;;12.10;6.88;;;;;;;10.78;75.67;100167.13;5066623;28;20039;-85
2022/06/03 04:28:57;;;;;;;11.65;6.93;;;;;;;10.90;75.16;100161.53;5043513;28;20484;-85
2022/06/03 04:31:50;;;;;;;8.48;5.38;;;;;;;11.09;74.37;100165.53;5064831;28;20127;-86
2022/06/03 04:34:37;;;;;;;9.00;5.20;;;;;;;11.24;73.80;100166.75;5046813;28;20036;-84
2022/06/03 04:37:25;;;;;;;11.05;6.72;;;;;;;11.20;74.07;100171.06;5046223;28;20040;-86
2022/06/03 04:40:51;;;;;;;14.18;6.32;;;;;;;11.31;73.80;100161.88;5046089;28;20033;-86
2022/06/03 04:44:02;;;;;;;9.30;5.78;;;;;;;11.63;73.02;100167.59;5043918;28;20037;-86
2022/06/03 04:47:05;;;;;;;10.82;6.20;;;;;;;11.65;72.18;100165.44;5043485;28;20040;-86
2022/06/03 04:50:25;;;;;;;11.48;5.70;;;;;;;11.76;71.66;100160.84;5045896;28;20053;-85
2022/06/03 04:53:19;;;;;;;9.85;5.47;;;;;;;11.91;70.90;100149.19;5035006;28;20045;-84
2022/06/03 04:56:06;;;;;;;11.75;4.97;;;;;;;11.85;71.11;100153.00;5047885;28;20029;-86
2022/06/03 04:59:09;;;;;;;8.40;4.95;;;;;;;11.81;70.74;100157.34;5066381;28;20035;-87
2022/06/03 05:01:43;;;;;;;9.60;5.20;;;;;;;12.13;70.04;100148.25;5066213;28;20025;-85
2022/06/03 05:04:41;;;;;;;9.35;5.80;;;;;;;12.03;69.76;100149.00;5049472;28;20064;-85
2022/06/03 05:07:24;;;;;;;11.85;6.68;;;;;;;12.22;69.21;100148.56;5046525;28;20028;-86
2022/06/03 05:10:05;;;;;;;14.23;6.70;;;;;;;12.21;69.20;100150.47;5045906;28;20033;-87
2022/06/03 05:13:12;;;;;;;9.25;5.97;;;;;;;12.04;69.54;100156.09;5045345;28;20049;-85
2022/06/03 05:16:20;;;;;;;12.38;6.47;;;;;;;12.19;70.66;100149.91;5046771;28;20064;-86
2022/06/03 05:18:48;;;;;;;13.90;5.20;;;;;;;12.18;70.17;100145.56;5045834;28;20029;-85
2022/06/03 05:21:32;;;;;;;9.38;4.88;;;;;;;12.23;69.72;100153.78;5045873;28;20091;-86
2022/06/03 05:24:13;;;;;;;8.52;5.07;;;;;;;12.29;69.16;100140.94;5046886;28;20043;-86
2022/06/03 05:26:57;;;;;;;10.30;5.50;;;;;;;12.48;68.50;100137.72;5045821;28;20037;-86
2022/06/03 05:29:40;;;;;;;9.07;5.00;;;;;;;12.53;68.52;100139.66;5046234;28;20082;-86
2022/06/03 05:33:01;;;;;;;8.30;5.32;;;;;;;12.73;67.41;100134.22;5046526;28;20116;-86
2022/06/03 05:35:45;;;;;;;9.27;4.95;;;;;;;12.73;68.08;100136.16;5024198;28;20029;-85
2022/06/03 05:38:31;;;;;;;8.73;5.13;;;;;;;12.75;67.62;100125.78;5024756;28;20057;-85
2022/06/03 05:44:37;;;;;;;9.30;4.65;;;;;;;12.82;67.33;100126.31;5020961;28;20041;-86
2022/06/03 05:47:10;;;;;;;10.10;5.97;;;;;;;12.99;66.87;100127.16;5000602;28;20049;-85
2022/06/03 05:49:50;;;;;;;9.60;3.88;;;;;;;13.08;66.21;100129.09;5026699;28;20033;-86
2022/06/03 05:52:25;;;;;;;7.00;3.85;;;;;;;13.22;66.19;100127.75;5043062;28;20640;-86
2022/06/03 05:54:59;;;;;;;10.40;4.40;;;;;;;13.18;66.18;100120.06;5028251;28;20037;-87
2022/06/03 05:57:33;;;;;;;6.72;4.55;;;;;;;13.27;66.75;100124.97;5043648;28;20044;-86
2022/06/03 06:00:16;;;;;;;6.30;3.38;;;;;;;13.35;66.62;100124.44;5043812;28;20486;-84
2022/06/03 06:03:18;;;;;;;7.23;4.63;;;;;;;13.46;67.39;100116.22;5039812;28;20035;-86
2022/06/03 06:06:21;;;;;;;10.00;4.50;;;;;;;13.53;67.83;100122.22;5054867;28;20033;-85
2022/06/03 06:08:51;;;;;;;6.95;3.55;;;;;;;13.43;67.80;100115.66;5043736;28;20128;-86
2022/06/03 06:11:31;;;;;;;7.68;4.20;;;;;;;13.42;65.72;100108.53;5042253;28;20041;-85
2022/06/03 06:14:09;;;;;;;14.20;4.07;;;;;;;13.40;66.45;100121.69;5038684;28;20053;-87
2022/06/03 06:16:40;;;;;;;10.30;3.85;;;;;;;13.32;66.78;100105.84;5042136;28;20033;-86
2022/06/03 06:19:42;;;;;;;5.90;3.50;;;;;;;13.43;66.20;100110.19;5043565;28;20037;-85
2022/06/03 06:22:09;;;;;;;11.45;3.63;;;;;;;13.36;66.42;100106.94;5037865;28;20250;-87
2022/06/03 06:24:34;;;;;;;10.35;4.40;;;;;;;13.40;66.38;100105.25;5041488;28;20118;-87
2022/06/03 06:27:41;;;;;;;8.67;4.07;;;;;;;13.65;66.18;100100.88;5042444;28;20029;-86
2022/06/03 06:30:28;;;;;;;5.45;3.75;;;;;;;13.56;66.66;100105.28;5040538;28;20380;-86
2022/06/03 06:33:22;;;;;;;7.28;4.32;;;;;;;13.61;66.70;100099.78;5043056;28;20078;-86
2022/06/03 06:36:06;;;;;;;12.32;4.65;;;;;;;13.83;66.53;100106.06;5046956;28;20526;-84
2022/06/03 06:38:44;;;;;;;18.43;5.47;;;;;;;13.92;66.19;100095.31;5047893;28;20579;-85
2022/06/03 06:41:42;;;;;;;9.80;4.10;;;;;;;13.90;65.73;100098.34;5043291;28;20836;-86
2022/06/03 06:44:32;;;;;;;11.82;4.78;;;;;;;13.95;66.37;100092.81;5041636;28;20037;-85
2022/06/03 06:47:21;;;;;;;8.40;4.78;;;;;;;13.96;66.47;100099.13;5042311;28;20041;-86
2022/06/03 06:50:03;;;;;;;9.45;5.78;;;;;;;14.10;65.78;100102.94;5043592;28;20391;-84
2022/06/03 06:52:57;;;;;;;28.48;5.43;;;;;;;14.04;65.84;100112.28;5041078;28;20123;-80
2022/06/03 06:55:38;;;;;;;11.88;5.93;;;;;;;14.08;65.72;100112.53;5041194;28;20029;-80
2022/06/03 06:58:08;;;;;;;10.95;6.47;;;;;;;14.07;66.43;100105.41;5043097;28;20064;-78
2022/06/03 07:00:38;;;;;;;10.05;4.60;;;;;;;14.21;65.62;100108.38;5040729;28;20071;-82
2022/06/03 07:03:20;;;;;;;13.77;4.60;;;;;;;14.36;65.82;100116.53;5041112;28;20718;-84
2022/06/03 07:05:59;;;;;;;10.57;4.53;;;;;;;14.47;65.26;100106.31;5038993;28;20033;-81
2022/06/03 07:08:41;;;;;;;13.93;5.43;;;;;;;14.56;65.79;100103.78;5040957;28;20025;-85
2022/06/03 07:11:14;;;;;;;8.20;4.45;;;;;;;14.56;65.09;100103.78;5041610;28;20847;-83
2022/06/03 07:13:46;;;;;;;7.05;3.75;;;;;;;14.57;65.25;100104.63;5039480;28;20049;-80
2022/06/03 07:19:47;;;;;;;15.68;4.32;;;;;;;14.61;65.29;100110.34;5021405;28;20056;-81
2022/06/03 07:22:26;;;;;;;7.65;4.47;;;;;;;14.68;65.02;100108.97;5020633;28;20136;-82
2022/06/03 07:25:10;;;;;;;7.93;3.65;;;;;;;14.68;64.72;100105.38;5022033;28;20043;-82
2022/06/03 07:28:00;;;;;;;8.50;4.75;;;;;;;14.77;64.59;100106.41;5019151;28;20044;-81
2022/06/03 07:30:50;;;;;;;11.98;4.07;;;;;;;14.87;64.38;100102.00;5019525;28;20037;-81
2022/06/03 07:33:35;;;;;;;11.45;3.75;;;;;;;14.92;64.21;100102.78;5029403;28;20029;-83
2022/06/03 07:36:25;;;;;;;6.78;3.22;;;;;;;14.97;64.83;100101.91;5040182;28;20035;-80
2022/06/03 07:39:13;;;;;;;6.93;3.08;;;;;;;15.07;64.45;100102.94;5040784;28;20021;-83
2022/06/03 07:41:47;;;;;;;7.32;3.20;;;;;;;15.09;63.97;100104.31;5042059;28;20029;-83
2022/06/03 07:44:20;;;;;;;8.88;4.35;;;;;;;15.13;63.88;100104.56;5038800;28;20515;-80
2022/06/03 07:46:52;;;;;;;;;;;;;;;15.28;63.24;100101.66;5041203;28;20498;-82
2022/06/03 07:49:18;;;;;;;3.78;2.22;;;;;;;15.29;63.60;100097.78;5040431;28;20338;-83
2022/06/03 07:51:48;;;;;;;5.43;3.20;;;;;;;15.32;63.45;100090.91;5039517;28;20400;-84
2022/06/03 07:54:25;;;;;;;10.10;3.40;;;;;;;15.34;63.39;100079.63;5039888;28;20123;-84
2022/06/03 07:56:59;;;;;;;11.68;3.85;;;;;;;15.36;64.01;100074.66;5049328;28;20048;-85
2022/06/03 07:59:24;;;;;;;;;;;;;;;15.37;64.24;100081.81;5060286;28;20043;-84
2022/06/03 08:01:59;;;;;;;5.43;2.60;;;;;;;15.61;63.26;100075.53;5058687;28;20162;-81
2022/06/03 08:04:30;;;;;;;5.72;2.78;;;;;;;15.62;62.85;100091.72;5042426;28;20420;-82
2022/06/03 08:12:31;;;;;;;;;;;;;;;15.80;62.44;100085.78;5041118;28;20487;-85
2022/06/03 08:14:56;;;;;;;9.73;3.25;;;;;;;15.92;62.61;100085.34;5039541;28;19931;-85
2022/06/03 08:17:24;;;;;;;4.78;2.60;;;;;;;15.98;61.93;100085.00;5041479;28;20025;-83
2022/06/03 08:19:50;;;;;;;5.72;3.40;;;;;;;15.98;62.85;100074.00;5042052;28;20043;-86
2022/06/03 08:22:20;;;;;;;5.70;2.92;;;;;;;16.03;62.82;100064.91;5040931;28;20432;-85
2022/06/03 08:24:52;;;;;;;6.32;3.10;;;;;;;16.09;62.18;100060.13;5022221;28;20033;-85
2022/06/03 08:27:32;;;;;;;7.10;2.75;;;;;;;16.10;62.61;100065.38;5024118;28;20066;-84
2022/06/03 08:30:01;;;;;;;3.42;2.15;;;;;;;16.06;62.93;100064.31;5041674;28;20033;-83
2022/06/03 08:32:45;;;;;;;6.85;2.50;;;;;;;16.27;62.11;100068.72;5040158;28;20033;-85
2022/06/03 08:35:15;;;;;;;7.78;3.20;;;;;;;16.26;62.21;100059.66;5040861;28;20056;-85
2022/06/03 08:37:48;;;;;;;6.28;3.55;;;;;;;16.45;61.41;100065.16;5040825;28;20246;-86
2022/06/03 08:40:24;;;;;;;;;;;;;;;16.36;62.37;100053.19;5039167;28;20025;-86
2022/06/03 08:43:01;;;;;;;5.97;2.80;;;;;;;16.59;61.01;100058.09;5041136;28;20479;-84
2022/06/03 08:45:39;;;;;;;5.15;2.92;;;;;;;16.58;61.09;100054.53;5041032;28;20027;-84
2022/06/03 08:48:11;;;;;;;5.32;2.85;;;;;;;16.69;60.89;100058.75;5039878;28;20029;-84
2022/06/03 08:50:52;;;;;;;5.70;3.08;;;;;;;16.84;60.82;100053.31;5041463;28;20035;-87
2022/06/03 08:53:36;;;;;;;3.90;2.33;;;;;;;16.75;61.17;100055.91;5039427;28;20025;-87
2022/06/03 08:56:01;;;;;;;;;;;;;;;16.74;61.49;100055.09;5046505;28;20582;-86
2022/06/03 08:58:58;;;;;;;7.00;3.03;;;;;;;16.98;60.48;100067.13;5060488;28;19961;-85
2022/06/03 09:01:44;;;;;;;8.50;3.75;;;;;;;17.18;60.25;100062.41;5059143;28;20054;-85
2022/06/03 09:04:18;;;;;;;4.20;2.35;;;;;;;17.18;60.13;100051.41;5045851;28;20181;-86
2022/06/03 09:07:18;;;;;;;5.85;2.55;;;;;;;17.21;60.61;100057.13;5039619;28;20385;-85
2022/06/03 09:10:10;;;;;;;5.30;2.60;;;;;;;17.36;59.92;100057.97;5040065;28;20036;-86
2022/06/03 09:12:47;;;;;;;4.63;2.13;;;;;;;17.38;59.69;100050.22;5040793;28;20045;-85
2022/06/03 09:15:20;;;;;;;5.00;2.28;;;;;;;17.53;59.80;100048.28;5039655;28;20029;-85
2022/06/03 09:17:54;;;;;;;4.90;2.33;;;;;;;17.58;59.27;100054.53;5040642;28;20055;-84
2022/06/03 09:20:28;;;;;;;5.60;2.67;;;;;;;17.64;58.12;100048.88;5040485;28;20399;-84
2022/06/03 09:23:10;;;;;;;5.82;2.45;;;;;;;17.87;57.77;100046.25;5038894;28;20488;-83
2022/06/03 09:25:38;;;;;;;4.50;2.25;;;;;;;17.87;57.73;100046.25;5040769;28;20029;-84
2022/06/03 09:28:07;;;;;;;4.93;2.35;;;;;;;17.91;57.11;100041.75;5039733;28;20029;-86
2022/06/03 09:30:40;;;;;;;4.32;2.75;;;;;;;17.88;57.10;100040.41;5042079;28;20037;-89
2022/06/03 09:33:08;;;;;;;5.25;2.58;;;;;;;17.85;57.15;100043.78;5055408;28;20044;-87
2022/06/03 09:35:38;;;;;;;4.70;2.47;;;;;;;18.04;55.73;100035.38;5039415;28;20029;-85
2022/06/03 09:38:06;;;;;;;2.58;1.70;;;;;;;18.17;55.59;100032.94;5040681;28;20029;-85
2022/06/03 09:40:40;;;;;;;3.90;2.17;;;;;;;18.25;55.04;100042.44;5039288;28;20020;-84
2022/06/03 09:43:20;;;;;;;4.15;2.33;;;;;;;18.42;54.00;100031.56;5039417;28;20130;-87
2022/06/03 09:45:49;;;;;;;2.78;1.88;;;;;;;18.41;54.57;100035.44;5040082;28;20056;-87
2022/06/03 09:48:17;;;;;;;6.30;1.80;;;;;;;18.39;54.43;100025.81;5040720;28;20025;-87
2022/06/03 09:50:46;;;;;;;8.85;2.33;;;;;;;18.41;54.71;100035.44;5042814;28;20033;-88
2022/06/03 09:53:12;;;;;;;7.28;3.42;;;;;;;18.37;54.07;100022.56;5043414;28;20036;-87
2022/06/03 09:55:43;;;;;;;5.05;2.22;;;;;;;18.58;54.46;100027.63;5047444;28;20909;-85
2022/06/03 09:58:15;;;;;;;5.93;2.65;;;;;;;18.55;53.13;100018.81;5064468;28;20107;-87
2022/06/03 10:00:45;;;;;;;3.75;2.28;;;;;;;18.77;52.72;100019.94;5065818;28;20037;-86
2022/06/03 10:03:10;;;;;;;5.45;2.10;;;;;;;18.90;52.86;100022.97;5055063;28;20029;-86
2022/06/03 10:05:36;;;;;;;3.88;1.77;;;;;;;19.11;52.12;100031.56;5040165;28;20520;-87
2022/06/03 10:08:09;;;;;;;3.97;2.30;;;;;;;19.05;51.46;100021.75;5044615;28;20083;-87
2022/06/03 10:13:20;;;;;;;2.97;1.83;;;;;;;18.89;53.22;100011.13;5043643;28;20138;-88
2022/06/03 10:15:53;;;;;;;4.35;1.60;;;;;;;19.15;51.39;100017.94;5042878;28;20484;-89
2022/06/03 10:18:41;;;;;;;3.50;2.22;;;;;;;19.36;50.93;100006.34;5043951;28;20025;-89
2022/06/03 10:21:10;;;;;;;8.85;2.28;;;;;;;19.30;50.71;100002.88;5044995;28;20025;-87
2022/06/03 10:23:42;;;;;;;4.90;2.15;;;;;;;19.13;51.85;99998.06;5035407;28;20123;-88
2022/06/03 10:26:07;;;;;;;5.80;2.10;;;;;;;19.02;52.05;100003.88;5043990;28;20567;-86
2022/06/03 10:28:38;;;;;;;9.27;2.60;;;;;;;19.47;52.50;100004.91;5042602;28;20479;-86
2022/06/03 10:31:13;;;;;;;6.07;2.35;;;;;;;19.87;50.77;100008.75;5042157;28;20420;-84
2022/06/03 10:33:38;;;;;;;3.72;2.20;;;;;;;19.96;50.69;99994.94;5043930;28;20033;-88
2022/06/03 10:36:05;;;;;;;7.28;2.55;;;;;;;19.79;51.17;99995.75;5042899;28;20032;-88
2022/06/03 10:38:33;;;;;;;6.35;2.33;;;;;;;19.73;50.76;99995.06;5045420;28;20120;-89
2022/06/03 10:41:09;;;;;;;13.10;3.75;;;;;;;19.73;50.97;99997.03;5042885;28;20048;-86
2022/06/03 10:43:48;;;;;;;4.45;2.45;;;;;;;19.81;50.72;99994.25;5044696;28;20029;-86
2022/06/03 10:46:19;;;;;;;4.88;2.50;;;;;;;19.79;50.92;99995.75;5042912;28;20033;-87
2022/06/03 10:48:46;;;;;;;4.50;2.83;;;;;;;19.82;51.10;99992.31;5040682;28;20029;-90
2022/06/03 10:51:19;;;;;;;5.05;2.38;;;;;;;19.85;51.05;99991.69;5044402;28;20025;-85
2022/06/03 11:02:35;;;;;;;4.53;2.53;;;;;;;20.33;48.90;99980.03;5040549;28;20040;-87
2022/06/03 11:05:23;;;;;;;5.07;2.25;;;;;;;20.54;48.78;99977.41;5042182;28;20079;-88
2022/06/03 11:08:07;;;;;;;5.13;2.42;;;;;;;20.27;49.12;99971.91;5043250;28;20053;-86
2022/06/03 11:10:45;;;;;;;5.45;2.50;;;;;;;20.41;49.12;99960.66;5042043;28;20036;-89
2022/06/03 11:13:14;;;;;;;5.53;2.13;;;;;;;20.42;49.06;99970.56;5043681;28;20407;-88
2022/06/03 11:15:45;;;;;;;3.03;1.95;;;;;;;20.76;48.33;99970.88;5040957;28;20369;-89
2022/06/03 11:18:19;;;;;;;5.53;2.08;;;;;;;20.92;47.93;99963.97;5042732;28;20025;-87
2022/06/03 11:20:50;;;;;;;5.78;2.60;;;;;;;20.69;48.59;99959.47;5042681;28;20024;-89
2022/06/03 11:23:16;;;;;;;4.68;2.38;;;;;;;20.40;49.19;99950.72;5041436;28;20062;-88
2022/06/03 11:25:51;;;;;;;3.20;2.13;;;;;;;20.72;48.80;99956.06;5043567;28;20435;-86
2022/06/03 11:28:24;;;;;;;4.15;2.00;;;;;;;20.92;48.34;99961.19;5040811;28;20456;-88
2022/06/03 11:30:56;;;;;;;3.42;2.08;;;;;;;20.92;48.05;99966.75;5043573;28;20033;-89
2022/06/03 11:33:27;;;;;;;3.65;2.53;;;;;;;20.67;48.35;99960.94;5041635;28;20090;-85
2022/06/03 11:35:58;;;;;;;6.20;2.30;;;;;;;20.64;49.00;99954.91;5039765;28;20041;-85
2022/06/03 11:38:34;;;;;;;6.05;2.40;;;;;;;20.83;47.89;99959.25;5042440;28;20107;-86
2022/06/03 11:41:06;;;;;;;10.75;3.72;;;;;;;20.81;47.84;99950.47;5040448;28;20029;-88
2022/06/03 11:44:05;;;;;;;7.95;3.13;;;;;;;20.63;48.73;99944.16;5042185;28;20503;-88
2022/06/03 11:46:37;;;;;;;4.97;2.30;;;;;;;20.56;48.88;99943.84;5042467;28;20033;-86
2022/06/03 11:49:07;;;;;;;9.93;3.13;;;;;;;20.39;49.50;99946.31;5041417;28;20484;-88
2022/06/03 11:51:33;;;;;;;6.65;2.72;;;;;;;20.55;48.74;99944.97;5042197;28;20071;-85
2022/06/03 11:53:59;;;;;;;10.88;2.53;;;;;;;20.86;47.04;99942.00;5041052;28;20036;-86
2022/06/03 11:56:28;;;;;;;7.20;3.35;;;;;;;21.27;46.05;99943.66;5051396;28;20046;-90
2022/06/03 11:59:19;;;;;;;9.40;2.45;;;;;;;21.00;47.34;99949.31;5060072;28;20045;-90
2022/06/03 12:01:44;;;;;;;3.75;2.20;;;;;;;21.39;46.48;99942.94;5061529;28;20024;-85
2022/06/03 12:04:17;;;;;;;4.10;1.80;;;;;;;21.55;45.13;99938.44;5047879;28;20824;-89
2022/06/03 12:06:50;;;;;;;3.60;2.30;;;;;;;21.30;45.32;99946.56;5041321;28;20033;-89
2022/06/03 12:09:45;;;;;;;19.80;3.75;;;;;;;21.05;46.24;99934.47;5034593;28;20666;-87
2022/06/03 12:15:34;;;;;;;3.30;1.90;;;;;;;21.68;45.03;99925.47;5022518;28;20148;-87
2022/06/03 12:18:06;;;;;;;3.90;1.65;;;;;;;21.27;46.10;99938.94;5044755;28;20438;-88
2022/06/03 12:20:31;;;;;;;4.68;2.47;;;;;;;21.21;45.46;99929.19;5042958;28;20029;-87
2022/06/03 12:22:58;;;;;;;3.50;2.20;;;;;;;21.09;46.02;99922.38;5042372;28;20032;-88
2022/06/03 12:25:41;;;;;;;2.10;1.73;;;;;;;21.28;45.90;99923.09;5041487;28;20051;-85
2022/06/03 12:28:21;;;;;;;3.17;2.15;;;;;;;21.23;46.27;99913.81;5041520;28;20029;-86
2022/06/03 12:30:57;;;;;;;2.97;2.05;;;;;;;21.36;46.63;99913.91;5042363;28;20025;-88
2022/06/03 12:33:25;;;;;;;4.47;2.22;;;;;;;21.53;45.04;99910.25;5039689;28;20036;-86
2022/06/03 12:35:57;;;;;;;4.45;1.90;;;;;;;21.41;45.17;99915.69;5042046;28;20148;-85
2022/06/03 12:38:23;;;;;;;4.53;1.60;;;;;;;21.57;45.47;99919.50;5041477;28;20337;-85
2022/06/03 12:41:06;;;;;;;5.60;2.72;;;;;;;21.39;44.44;99909.66;5040765;28;20028;-84
2022/06/03 12:43:56;;;;;;;3.30;1.95;;;;;;;21.34;45.11;99908.72;5031693;28;20548;-83
2022/06/03 12:46:40;;;;;;;2.38;1.63;;;;;;;21.15;45.98;99913.88;5038198;28;20492;-87
2022/06/03 12:49:35;;;;;;;4.68;2.17;;;;;;;21.17;45.86;99912.41;5040904;28;20069;-87
2022/06/03 12:52:07;;;;;;;2.75;2.20;;;;;;;21.25;45.03;99912.69;5041547;28;20068;-84
2022/06/03 12:54:37;;;;;;;4.45;2.00;;;;;;;21.26;45.02;99919.84;5039697;28;20424;-87
2022/06/03 12:57:10;;;;;;;4.38;2.10;;;;;;;21.57;44.75;99915.94;5054453;28;20571;-86
2022/06/03 12:59:52;;;;;;;4.63;2.33;;;;;;;21.49;43.79;99920.38;5060312;28;20544;-87
2022/06/03 13:02:23;;;;;;;3.58;1.80;;;;;;;21.60;45.13;99914.44;5060098;28;20028;-87
2022/06/03 13:04:54;;;;;;;4.07;2.22;;;;;;;21.97;44.35;99903.56;5021747;28;20079;-87